Decoded Metar for EPZG (ZIELONA GORA in POLAND) (IATA:IEG) | Meteo·Mobile Aviation Weather
aviador You're here:

EPZG Decoded Metar

ZIELONA GORA in POLAND
Report Time2019-07-19 19:00:00
UTC Time2019-07-19 19:17:00
Flight Rules vfr VFR
Wind250° at 08 kt
W.Decomp.*RWY 24: 7.9 kt HW 1.0 kt RCW
Visibility9999 m
Phenomena:N/A
Clouds:N/A
Expected CloudBase > 3,600 ft AGL from Temp-Dew spread
CeilingNone
Temp23°C (ISA +8)
Dew Point14°C (57% RH)
AAT21.4°C
QNH1014 hPa
Density Alt1,348 ft
Elevation194 ft
Report Wrong Elevation
Raw Report
METAR EPZG 191900Z 25008KT 230V290 CAVOK 23/14 Q1014 =

Extra information for EPZG:More info

Metar Taf Metar & Taf Last 4 Metars F.Rules Stats Wind Profile Meteogram Temp Stats Airport Information Weather charts Add Link Nearby VenuesMetar ALERT Operation Metar Decoded Social comments